Terminal Aerodrome Forecast
Issued by NWS

Home | Current Version | Previous Version | Text Only | Print | Product List | Glossary Off
Versions: 1 2 3 4 5 6 7 8 9 10 11 12 13 14 15 16 17

000
FTUS43 KOAX 270520
TAFCDR
TAF
KCDR 270520Z 2706/2806 VRB03KT P6SM OVC015
     FM270900 28007KT 5SM BR OVC022
     FM271500 26009KT P6SM BKN050=

USA.gov is the U.S. government's official web portal to all federal, state and local government web resources and services.